Aeroporto :
LOGIN :

Iscrizione | Disclaimer

   EN    FR    IT 

 










Sommario :    VFR   VFR Marginale   IFR   IFR Intensivo   IFR Molto Intensivo
Visibilità : 
Base nubi : 
>= 8 km
>= 3000ft
5 / 8 km
1000 / 3000 ft
1500m / 5 km
500 / 1000 ft
800 / 1500m
200 / 500 ft
< 800m
< 200 ft
Simboli :   Temporali  Nebbia  Neve Forte  Precipitazioni Forti  Vento > 20 kt
SIGMETs :   Varie  Temporali  Ghiacco  Turbolenza  Onda orograficha  Ceneri Vulcaniche







- Altitudine del aeroporto : 106 ft
- Codice IATA : XDA
- Carte del aeroporto


LFBY - Dax Seyresse

ULTIMO METAR :
  • 251130Z 27010KT 230V310 2000 SHRA SCT013 BKN023TCU 18/15 Q1021

METARs OBSOLETI :
  • 251100Z 25006KT 220V300 9000 SCT015 SCT030TCU 20/16 Q1021
  • 251000Z 22008KT 190V250 9999 FEW013 SCT026TCU 20/17 Q1021
  • 250900Z 20005KT 180V240 8000 FEW023 FEW033TCU SCT053 18/17 Q1021

TAF TAF LFBY
Valido dal 25 a 09 ore il 25 a 18 ore UTC


250800Z 2509/2518 25005KT 9000 SCT020 BKN050
BECMG 2509/2511 5000 SHRA FEW015 BKN025TCU
BECMG 2512/2514 31010KT 9999 BKN040
Nessun NOTAM noto per questo aeroporto.
2 SIGMETs conosciuti per la FIR Bordeaux (LFBB) :
 
Temporali affogati
LFBB SIGMET 7 VALID 251130/251300 LFPW
LFBB BORDEAUX FIR/UIR EMBD TS OBS WI N4245 E00230 - N4215 E00230 - N4230 E00130 - N4300 E00145 TOP FL340 MOV E 15KT NC=
Temporali affogati
LFBB SIGMET 6 VALID 251030/251130 LFPW
LFBB BORDEAUX FIR/UIR EMBD TS OBS WI N4230 E00130 - N4230 E00045 - N4345 E00145 - N4330 E00230 TOP FL340 MOV NE 20KT NC=



MetMap, La meteo Aeronautica in un colpo d'occhio ! - Copyright ORBIFLY Dicembre 2007 - Disclaimer

ORBIFLY MET'MAP TEAM :

Programmazione e sviluppo : Alexandra Zaïnal
Concezione e sviluppo : Baudouin d'Aumeries
Co-Programmazione e sviluppo : Marc-Olivier Méhu
Supporto tecnico e logistico : Manuel Goepfert
Aiuto per la traduzione : Arnaldo La Scala

Contatto : metmap@orbifly.com




FONTI E CREDITI :

   NOAA